Time;durP1;ratioP1;P1;durP2;ratioP2;P2;SDS_P1;SDS_P2;PMS_P1;PMS_P2;Temp;Humidity;BMP_temperature;BMP_pressure;BME280_temperature;BME280_humidity;BME280_pressure;Samples;Min_cycle;Max_cycle;Signal;HPM_P1;HPM_P2
2022/07/08 00:03:21;;;;;;;;;;;;;;;;;;;;;
2022/07/08 00:07:57;;;;;;;6.10;5.20;;;;;;;18.81;59.27;100739.56;108652;1276;21994;-84
2022/07/08 00:11:14;;;;;;;5.40;4.90;;;;;;;18.61;59.92;100740.95;107032;1295;22484;-83
2022/07/08 00:15:20;;;;;;;;;;;;;;;;;;;;;
2022/07/08 00:36:25;;;;;;;8.00;6.00;;;;;;;19.74;57.22;100755.30;108950;1270;22059;-84
2022/07/08 00:40:36;;;;;;;;;;;;;;;;;;;;;
2022/07/08 00:44:54;;;;;;;;;;;;;;;;;;;;;
2022/07/08 00:48:25;;;;;;;7.90;6.40;;;;;;;18.42;60.73;100758.84;110802;1254;21972;-84
2022/07/08 00:52:24;;;;;;;;;;;;;;;;;;;;;
2022/07/08 00:56:36;;;;;;;6.70;6.10;;;;;;;18.14;62.05;100762.95;110040;1261;21985;-84
2022/07/08 01:15:22;;;;;;;;;;;;;;;;;;;;;
2022/07/08 01:19:56;;;;;;;;;;;;;;;;;;;;;
2022/07/08 01:27:38;;;;;;;;;;;;;;;;;;;;;
2022/07/08 01:31:02;;;;;;;7.30;6.70;;;;;;;18.20;62.22;100772.66;108705;1278;22469;-85
2022/07/08 01:34:13;;;;;;;7.70;6.90;;;;;;;18.09;62.71;100777.36;108584;1278;22023;-84
2022/07/08 01:37:29;;;;;;;;;;;;;;;;;;;;;
2022/07/08 01:41:48;;;;;;;7.10;6.50;;;;;;;17.90;63.74;100781.84;108583;1275;22005;-85
2022/07/08 01:45:19;;;;;;;;;;;;;;;;;;;;;
2022/07/08 01:49:08;;;;;;;;;;;;;;;;;;;;;
2022/07/08 01:52:08;;;;;;;;;;;;;;;;;;;;;
2022/07/08 01:56:13;;;;;;;;;;;;;;;;;;;;;
2022/07/08 02:00:16;;;;;;;;;;;;;;;;;;;;;
2022/07/08 02:04:12;;;;;;;;;;;;;;;;;;;;;
2022/07/08 02:08:29;;;;;;;;;;;;;;;;;;;;;
2022/07/08 02:12:35;;;;;;;;;;;;;;;;;;;;;
2022/07/08 02:17:09;;;;;;;;;;;;;;;;;;;;;
2022/07/08 02:32:12;;;;;;;;;;;;;;;;;;;;;
2022/07/08 03:03:57;;;;;;;9.50;8.70;;;;;;;19.40;60.61;100824.65;108718;1273;548335;-85
2022/07/08 03:16:27;;;;;;;;;;;;;;;;;;;;;
2022/07/08 03:20:30;;;;;;;;;;;;;;;;;;;;;
2022/07/08 03:23:45;;;;;;;;;;;;;;;;;;;;;
2022/07/08 03:28:15;;;;;;;;;;;;;;;;;;;;;
2022/07/08 03:31:41;;;;;;;;;;;;;;;;;;;;;
2022/07/08 03:35:27;;;;;;;;;;;;;;;;;;;;;
2022/07/08 03:56:09;;;;;;;;;;;;;;;;;;;;;
2022/07/08 04:12:16;;;;;;;;;;;;;;;;;;;;;
2022/07/08 04:16:11;;;;;;;;;;;;;;;;;;;;;
2022/07/08 04:23:58;;;;;;;;;;;;;;;;;;;;;
2022/07/08 04:28:46;;;;;;;;;;;;;;;;;;;;;
2022/07/08 04:37:10;;;;;;;;;;;;;;;;;;;;;
2022/07/08 04:40:19;;;;;;;;;;;;;;;;;;;;;
2022/07/08 04:43:44;;;;;;;;;;;;;;;;;;;;;
2022/07/08 04:47:36;;;;;;;;;;;;;;;;;;;;;
2022/07/08 05:05:26;;;;;;;;;;;;;;;;;;;;;
2022/07/08 05:09:00;;;;;;;;;;;;;;;;;;;;;
2022/07/08 05:12:57;;;;;;;12.40;11.20;;;;;;;18.92;64.65;100936.09;111274;1250;22665;-86
2022/07/08 05:21:09;;;;;;;;;;;;;;;;;;;;;
2022/07/08 05:23:51;;;;;;;14.30;13.10;;;;;;;18.35;67.42;100942.33;109254;1266;22582;-85
2022/07/08 05:27:28;;;;;;;;;;;;;;;;;;;;;
2022/07/08 05:31:21;;;;;;;;;;;;;;;;;;;;;
2022/07/08 05:35:11;;;;;;;;;;;;;;;;;;;;;
2022/07/08 05:38:29;;;;;;;;;;;;;;;;;;;;;
2022/07/08 05:41:56;;;;;;;;;;;;;;;;;;;;;
2022/07/08 05:44:45;;;;;;;12.40;11.30;;;;;;;18.15;70.26;100957.11;108900;1270;22114;-81
2022/07/08 05:47:30;;;;;;;12.60;11.40;;;;;;;18.19;70.49;100956.96;108773;1274;23058;-81
2022/07/08 05:50:17;;;;;;;12.00;11.10;;;;;;;18.21;70.48;100962.55;108918;1273;23065;-82
2022/07/08 05:53:01;;;;;;;10.60;9.50;;;;;;;18.24;70.77;100962.48;108847;1273;24791;-82
2022/07/08 05:55:30;;;;;;;11.20;10.40;;;;;;;18.28;70.85;100962.11;108821;1269;22081;-82
2022/07/08 05:58:13;;;;;;;10.20;9.20;;;;;;;18.33;70.85;100962.77;109368;1265;23166;-83
2022/07/08 06:00:49;;;;;;;10.40;9.50;;;;;;;18.38;70.75;100968.15;109219;1268;22000;-83
2022/07/08 06:03:25;;;;;;;9.20;8.30;;;;;;;18.43;70.53;100969.17;109113;1268;24950;-81
2022/07/08 06:06:09;;;;;;;9.20;8.50;;;;;;;18.48;70.46;100972.23;108866;1265;21993;-83
2022/07/08 06:08:45;;;;;;;9.60;7.30;;;;;;;18.51;70.33;100976.84;109729;1261;21982;-81
2022/07/08 06:11:14;;;;;;;7.70;7.00;;;;;;;18.52;69.96;100979.98;109956;1262;21991;-83
2022/07/08 06:13:43;;;;;;;7.50;6.80;;;;;;;18.52;69.66;100981.29;110239;1254;22219;-83
2022/07/08 06:16:15;;;;;;;8.80;6.50;;;;;;;18.51;69.42;100984.78;110883;1254;22006;-83
2022/07/08 06:18:46;;;;;;;7.50;6.40;;;;;;;18.52;69.50;100986.80;110508;1252;23697;-83
2022/07/08 06:21:15;;;;;;;6.00;5.30;;;;;;;18.54;69.40;100987.79;110751;1253;22554;-83
2022/07/08 06:23:46;;;;;;;10.70;9.70;;;;;;;18.57;69.37;100988.98;110916;1245;22068;-83
2022/07/08 06:26:17;;;;;;;7.80;6.50;;;;;;;18.63;69.38;100989.44;111377;1241;23697;-83
2022/07/08 06:28:46;;;;;;;7.60;6.00;;;;;;;18.73;69.46;100989.21;111461;1244;23052;-80
2022/07/08 06:31:15;;;;;;;9.60;6.00;;;;;;;18.81;69.22;100989.02;111316;1245;21970;-83
2022/07/08 06:33:56;;;;;;;9.60;6.40;;;;;;;18.91;69.17;100990.04;111169;1251;22332;-83
2022/07/08 06:36:43;;;;;;;7.50;6.00;;;;;;;19.00;68.79;100994.07;110362;1251;21983;-83
2022/07/08 06:39:12;;;;;;;59.40;8.80;;;;;;;19.07;68.16;100989.45;110857;1251;23681;-77
2022/07/08 06:41:40;;;;;;;10.20;5.10;;;;;;;19.11;67.94;100996.98;110575;1251;22078;-77
2022/07/08 06:48:02;;;;;;;5.20;3.20;;;;;;;19.09;67.36;101000.28;111350;1245;23976;-81
2022/07/08 06:51:49;;;;;;;;;;;;;;;;;;;;;
2022/07/08 07:00:32;;;;;;;;;;;;;;;;;;;;;
2022/07/08 07:05:18;;;;;;;;;;;;;;;;;;;;;
2022/07/08 07:09:20;;;;;;;;;;;;;;;;;;;;;
2022/07/08 07:39:35;;;;;;;;;;;;;;;;;;;;;
2022/07/08 07:47:32;;;;;;;10.60;7.40;;;;;;;20.06;59.89;101051.73;109580;1267;21973;-84
2022/07/08 07:55:36;;;;;;;12.20;8.60;;;;;;;19.44;63.00;101046.34;108257;1283;23781;-83
2022/07/08 07:58:42;;;;;;;;;;;;;;;;;;;;;
2022/07/08 08:01:52;;;;;;;14.50;9.80;;;;;;;19.25;65.25;101043.03;108012;1284;23126;-79
2022/07/08 08:04:38;;;;;;;13.00;11.70;;;;;;;19.27;66.07;101038.99;107603;1280;22474;-79
2022/07/08 08:07:40;;;;;;;;;;;;;;;19.30;66.80;101035.27;108123;1279;23024;-78
2022/07/08 08:10:16;;;;;;;15.90;10.80;;;;;;;19.33;67.77;101030.00;108095;1279;22212;-79
2022/07/08 08:12:48;;;;;;;11.20;9.00;;;;;;;19.45;67.94;101031.95;108343;1273;22098;-80
2022/07/08 08:15:34;;;;;;;11.10;8.60;;;;;;;19.62;67.94;101033.21;108470;1273;22049;-79
2022/07/08 08:18:08;;;;;;;12.00;8.70;;;;;;;19.77;67.80;101028.47;108481;1274;22102;-78
2022/07/08 08:20:48;;;;;;;12.40;8.60;;;;;;;19.91;67.46;101032.45;108475;1273;23086;-78
2022/07/08 08:23:18;;;;;;;12.70;8.20;;;;;;;19.97;66.92;101030.66;108588;1267;23586;-78
2022/07/08 08:31:09;;;;;;;;;;;;;;;;;;;;;
2022/07/08 08:35:09;;;;;;;;;;;;;;;;;;;;;
2022/07/08 08:39:24;;;;;;;;;;;;;;;;;;;;;
2022/07/08 08:43:22;;;;;;;6.80;5.90;;;;;;;19.85;66.05;101051.34;108395;1282;22873;-84
2022/07/08 08:46:11;;;;;;;12.20;7.40;;;;;;;19.81;65.78;101054.02;108046;1279;22460;-80
2022/07/08 08:48:40;;;;;;;11.60;6.40;;;;;;;19.82;65.72;101053.69;108076;1282;23093;-79
2022/07/08 08:51:26;;;;;;;9.40;6.00;;;;;;;19.82;65.68;101049.36;107988;1282;22042;-79
2022/07/08 08:54:13;;;;;;;13.20;7.50;;;;;;;19.78;65.63;101052.67;108035;1282;21991;-80
2022/07/08 08:57:10;;;;;;;12.80;7.60;;;;;;;19.81;66.05;101051.92;107998;1282;22009;-79
2022/07/08 09:00:05;;;;;;;9.10;5.90;;;;;;;19.93;66.85;101052.38;108051;1279;24466;-79
2022/07/08 09:02:52;;;;;;;14.00;6.60;;;;;;;20.08;66.55;101047.39;107975;1282;22173;-80
2022/07/08 09:05:36;;;;;;;7.40;6.00;;;;;;;20.21;66.01;101048.98;108354;1276;23040;-80
2022/07/08 09:08:35;;;;;;;;;;;;;;;;;;;;;
2022/07/08 09:11:26;;;;;;;11.30;6.70;;;;;;;20.83;66.54;101043.50;108684;1270;23600;-80
2022/07/08 09:14:25;;;;;;;8.00;5.60;;;;;;;21.35;65.65;101042.63;109267;1261;22438;-79
2022/07/08 09:17:16;;;;;;;7.40;4.50;;;;;;;21.89;64.68;101038.41;109728;1261;23334;-80
2022/07/08 09:19:53;;;;;;;13.40;5.00;;;;;;;22.41;62.60;101044.49;110353;1254;24336;-79
2022/07/08 09:22:27;;;;;;;9.00;4.00;;;;;;;22.64;59.93;101046.97;110498;1254;23332;-79
2022/07/08 09:25:00;;;;;;;5.70;3.90;;;;;;;22.72;58.70;101051.69;110354;1254;23067;-79
2022/07/08 09:27:40;;;;;;;4.90;3.50;;;;;;;22.66;57.34;101050.30;109875;1260;21981;-79
2022/07/08 09:30:16;;;;;;;10.80;4.50;;;;;;;22.48;57.07;101048.71;109599;1260;21931;-79
2022/07/08 09:33:04;;;;;;;7.60;4.70;;;;;;;22.28;57.07;101053.21;109690;1261;21970;-78
2022/07/08 09:35:37;;;;;;;7.10;4.30;;;;;;;22.15;57.51;101059.45;109873;1260;22917;-79
2022/07/08 09:38:12;;;;;;;6.80;3.60;;;;;;;22.02;57.41;101057.29;109881;1261;23662;-77
2022/07/08 09:41:12;;;;;;;5.70;4.10;;;;;;;21.87;57.68;101057.85;109449;1260;21980;-78
2022/07/08 09:43:56;;;;;;;5.80;4.20;;;;;;;21.82;58.07;101054.84;109006;1264;23606;-79
2022/07/08 09:46:38;;;;;;;8.60;4.20;;;;;;;21.81;57.85;101051.70;109420;1264;21973;-78
2022/07/08 09:49:38;;;;;;;5.90;3.80;;;;;;;21.83;57.82;101052.89;109143;1263;22077;-79
2022/07/08 09:52:23;;;;;;;7.30;3.90;;;;;;;21.82;57.46;101052.69;109530;1258;22719;-79
2022/07/08 09:55:11;;;;;;;9.40;4.00;;;;;;;21.84;57.32;101046.41;109828;1260;23630;-79
2022/07/08 09:57:44;;;;;;;6.00;3.70;;;;;;;21.93;57.32;101045.47;110233;1257;22000;-78
2022/07/08 10:00:21;;;;;;;5.10;3.20;;;;;;;21.97;56.76;101051.77;109876;1257;22182;-78
2022/07/08 10:03:23;;;;;;;8.90;3.50;;;;;;;21.87;56.25;101061.08;110190;1253;21988;-83
2022/07/08 10:06:53;;;;;;;;;;;;;;;;;;;;;
2022/07/08 10:10:15;;;;;;;9.00;4.60;;;;;;;21.25;56.58;101076.08;109162;1267;23036;-83
2022/07/08 10:13:23;;;;;;;;;;;;;;;;;;;;;
2022/07/08 10:16:14;;;;;;;11.10;8.50;;;;;;;20.81;58.71;101075.16;108838;1273;24213;-83
2022/07/08 10:20:07;;;;;;;;;;;;;;;;;;;;;
2022/07/08 10:23:16;;;;;;;10.10;5.90;;;;;;;20.64;60.12;101078.04;109003;1273;22897;-84
2022/07/08 10:26:40;;;;;;;8.80;4.40;;;;;;;20.61;60.58;101078.80;108049;1282;21995;-84
2022/07/08 10:33:41;;;;;;;;;;;;;;;;;;;;;
2022/07/08 10:37:46;;;;;;;7.30;4.10;;;;;;;21.14;60.61;101066.66;108304;1283;23655;-82
2022/07/08 10:41:15;;;;;;;10.90;5.10;;;;;;;21.15;59.20;101069.02;107623;1289;22093;-84
2022/07/08 10:44:17;;;;;;;;;;;;;;;;;;;;;
2022/07/08 10:47:52;;;;;;;6.40;3.40;;;;;;;21.05;58.97;101067.95;107990;1285;22664;-85
2022/07/08 10:51:10;;;;;;;;;;;;;;;;;;;;;
2022/07/08 10:54:11;;;;;;;7.60;3.40;;;;;;;20.91;59.07;101060.45;107561;1289;23626;-82
2022/07/08 10:57:22;;;;;;;6.60;3.20;;;;;;;20.87;59.58;101060.16;107910;1283;22019;-83
2022/07/08 11:00:46;;;;;;;;;;;;;;;;;;;;;
2022/07/08 11:03:55;;;;;;;;;;;;;;;;;;;;;
2022/07/08 11:07:42;;;;;;;;;;;;;;;;;;;;;
2022/07/08 11:10:56;;;;;;;3.20;2.30;;;;;;;20.92;59.48;101063.63;108827;1273;22243;-83
2022/07/08 11:14:07;;;;;;;5.60;2.40;;;;;;;21.07;59.28;101059.66;109053;1267;22490;-82
2022/07/08 11:17:50;;;;;;;;;;;;;;;;;;;;;
2022/07/08 11:21:18;;;;;;;5.80;2.20;;;;;;;21.42;57.31;101047.84;109320;1267;23622;-81
2022/07/08 11:25:25;;;;;;;8.50;2.40;;;;;;;21.53;56.31;101052.27;109828;1258;23065;-86
2022/07/08 11:29:36;;;;;;;7.10;2.50;;;;;;;21.72;55.83;101052.93;110443;1260;22030;-88
2022/07/08 11:33:41;;;;;;;;;;;;;;;;;;;;;
2022/07/08 11:37:59;;;;;;;;;;;;;;;;;;;;;
2022/07/08 11:43:01;;;;;;;5.30;2.00;;;;;;;22.04;54.34;101046.49;108587;1282;22016;-84
2022/07/08 11:46:29;;;;;;;4.50;1.90;;;;;;;22.12;53.66;101045.36;107612;1288;22007;-84
2022/07/08 11:49:41;;;;;;;;;;;;;;;;;;;;;
2022/07/08 11:53:54;;;;;;;;;;;;;;;;;;;;;
2022/07/08 11:57:04;;;;;;;;;;;;;;;;;;;;;
2022/07/08 12:04:13;;;;;;;3.70;1.60;;;;;;;22.37;49.87;101037.66;107393;1291;22001;-85
2022/07/08 12:11:51;;;;;;;;;;;;;;;;;;;;;
2022/07/08 12:15:00;;;;;;;;;;;;;;;;;;;;;
2022/07/08 12:19:07;;;;;;;3.70;1.70;;;;;;;23.06;48.40;101011.80;107580;1289;544695;-85
2022/07/08 12:23:39;;;;;;;;;;;;;;;;;;;;;
2022/07/08 12:27:28;;;;;;;5.20;1.40;;;;;;;23.15;46.21;101010.55;109123;1270;21980;-84
2022/07/08 12:31:23;;;;;;;;;;;;;;;;;;;;;
2022/07/08 12:42:40;;;;;;;4.10;1.60;;;;;;;23.32;45.42;101000.74;107026;1295;22029;-84
2022/07/08 12:45:42;;;;;;;;;;;;;;;;;;;;;
2022/07/08 12:49:04;;;;;;;;;;;;;;;;;;;;;
2022/07/08 12:55:25;;;;;;;;;;;;;;;;;;;;;
2022/07/08 12:58:48;;;;;;;4.30;1.50;;;;;;;22.57;45.41;101018.48;108044;1285;23738;-85
2022/07/08 13:02:27;;;;;;;4.50;1.50;;;;;;;22.38;46.22;101020.23;107657;1286;22005;-85
2022/07/08 13:06:42;;;;;;;;;;;;;;;;;;;;;
2022/07/08 13:09:20;;;;;;;5.80;1.90;;;;;;;22.10;46.93;101020.35;108252;1280;22007;-86
2022/07/08 13:11:51;;;;;;;7.50;1.80;;;;;;;22.11;46.54;101022.36;108345;1280;23725;-83
2022/07/08 13:14:19;;;;;;;8.90;1.80;;;;;;;22.13;46.29;101012.98;108479;1274;21988;-84
2022/07/08 13:16:49;;;;;;;4.70;2.30;;;;;;;22.17;46.16;101013.28;108687;1274;21986;-84
2022/07/08 13:19:16;;;;;;;5.90;1.80;;;;;;;22.26;46.08;101010.94;108705;1273;22911;-86
2022/07/08 13:21:45;;;;;;;5.10;1.50;;;;;;;22.36;45.80;101001.59;108819;1273;22055;-85
2022/07/08 13:24:18;;;;;;;3.50;1.20;;;;;;;22.50;45.67;101004.46;108771;1270;22546;-87
2022/07/08 13:26:59;;;;;;;6.40;1.50;;;;;;;22.63;45.55;101005.27;109238;1267;23606;-84
2022/07/08 13:29:53;;;;;;;5.20;2.20;;;;;;;22.68;45.45;101006.30;109000;1271;22005;-84
2022/07/08 13:32:41;;;;;;;6.30;2.60;;;;;;;22.73;45.64;101004.31;108839;1271;23615;-85
2022/07/08 13:35:24;;;;;;;5.90;2.60;;;;;;;22.69;45.42;101010.27;108821;1270;23659;-85
2022/07/08 13:38:10;;;;;;;4.60;1.70;;;;;;;22.65;45.84;101015.27;108694;1273;21993;-87
2022/07/08 13:40:56;;;;;;;3.50;1.60;;;;;;;22.58;45.90;101011.23;108682;1275;22081;-86
2022/07/08 13:43:35;;;;;;;6.70;1.50;;;;;;;22.53;46.12;101010.77;108524;1278;22005;-84
2022/07/08 13:46:17;;;;;;;4.10;1.70;;;;;;;22.48;46.18;101008.48;108345;1278;21968;-86
2022/07/08 13:48:52;;;;;;;5.30;1.80;;;;;;;22.40;45.88;101002.27;108632;1278;21996;-87
2022/07/08 13:51:39;;;;;;;4.30;1.40;;;;;;;22.31;45.61;101005.68;108679;1278;23656;-85
2022/07/08 13:54:12;;;;;;;7.20;1.40;;;;;;;22.25;45.59;101001.13;108439;1278;23671;-86
2022/07/08 13:56:42;;;;;;;6.30;1.90;;;;;;;22.23;45.64;101005.13;108680;1273;21990;-85
2022/07/08 13:59:33;;;;;;;9.00;2.20;;;;;;;22.20;45.50;101008.44;108986;1267;23855;-85
2022/07/08 14:02:17;;;;;;;9.30;1.80;;;;;;;22.16;45.62;101003.90;109259;1267;23712;-86
2022/07/08 14:04:55;;;;;;;5.90;1.90;;;;;;;22.12;45.74;100997.96;109784;1259;23678;-86
2022/07/08 14:07:49;;;;;;;7.00;2.30;;;;;;;22.13;45.66;100999.16;109795;1260;24511;-89
2022/07/08 14:10:23;;;;;;;7.10;3.00;;;;;;;22.13;45.90;101000.77;109758;1261;21975;-83
2022/07/08 14:12:55;;;;;;;4.70;3.40;;;;;;;22.15;46.19;101002.45;109936;1260;22845;-80
2022/07/08 14:15:30;;;;;;;5.90;2.50;;;;;;;22.21;46.53;101005.61;109936;1261;23729;-81
2022/07/08 14:18:00;;;;;;;13.80;3.00;;;;;;;22.27;46.76;101011.25;110095;1260;23704;-79
2022/07/08 14:20:33;;;;;;;4.80;2.50;;;;;;;22.29;46.98;101010.02;110339;1257;22763;-85
2022/07/08 14:23:22;;;;;;;5.70;2.20;;;;;;;22.32;46.48;101013.85;110418;1256;23827;-86
2022/07/08 14:25:54;;;;;;;6.90;2.80;;;;;;;22.32;46.34;101011.27;110454;1256;23713;-83
2022/07/08 14:28:39;;;;;;;4.00;2.00;;;;;;;22.27;46.06;101008.23;110925;1259;22133;-84
2022/07/08 14:31:18;;;;;;;5.00;2.40;;;;;;;22.25;46.36;101011.69;110820;1259;21989;-88
2022/07/08 14:34:11;;;;;;;3.30;1.80;;;;;;;22.28;46.36;101014.08;110394;1260;23614;-87
2022/07/08 14:36:50;;;;;;;4.90;1.90;;;;;;;22.33;46.41;101012.52;110839;1257;21968;-86
2022/07/08 14:39:31;;;;;;;9.60;3.40;;;;;;;22.37;46.13;101012.05;110347;1258;22059;-85
2022/07/08 14:42:30;;;;;;;3.90;2.70;;;;;;;22.38;45.47;101016.09;110455;1257;21999;-85
2022/07/08 14:45:16;;;;;;;5.10;3.30;;;;;;;22.33;45.04;101017.11;109423;1267;21973;-84
2022/07/08 14:47:53;;;;;;;4.70;2.30;;;;;;;22.30;44.60;101022.21;109270;1267;21989;-82
2022/07/08 14:50:38;;;;;;;5.80;1.90;;;;;;;22.30;44.54;101028.38;109532;1266;22029;-86
2022/07/08 14:53:17;;;;;;;4.20;2.20;;;;;;;22.25;44.61;101028.26;109361;1267;22292;-83
2022/07/08 14:56:01;;;;;;;5.80;1.80;;;;;;;22.20;44.88;101025.46;109452;1265;22960;-80
2022/07/08 14:58:46;;;;;;;5.00;1.80;;;;;;;22.16;45.27;101023.85;108908;1273;22003;-84
2022/07/08 15:01:37;;;;;;;5.70;2.10;;;;;;;22.10;45.47;101029.27;109279;1270;24284;-83
2022/07/08 15:04:12;;;;;;;5.10;2.00;;;;;;;22.05;45.77;101023.59;108990;1271;22854;-83
2022/07/08 15:06:51;;;;;;;5.80;2.70;;;;;;;22.08;46.11;101030.02;108921;1270;22925;-82
2022/07/08 15:09:50;;;;;;;4.90;1.90;;;;;;;22.15;46.32;101030.63;108945;1270;24900;-84
2022/07/08 15:12:27;;;;;;;6.20;1.80;;;;;;;22.23;46.37;101030.42;108965;1270;22872;-83
2022/07/08 15:15:01;;;;;;;8.00;1.80;;;;;;;22.29;46.35;101037.58;108973;1272;23746;-83
2022/07/08 15:17:36;;;;;;;6.00;1.70;;;;;;;22.26;45.79;101044.55;109050;1272;22055;-84
2022/07/08 15:20:21;;;;;;;3.80;1.80;;;;;;;22.13;45.37;101046.33;109101;1270;21990;-84
2022/07/08 15:23:00;;;;;;;7.10;1.60;;;;;;;21.98;45.41;101055.64;109594;1257;23589;-83
2022/07/08 15:25:42;;;;;;;5.20;1.50;;;;;;;21.91;45.54;101053.33;109994;1260;22042;-84
2022/07/08 15:28:13;;;;;;;3.70;1.80;;;;;;;21.87;45.53;101053.17;110070;1263;21993;-84
2022/07/08 15:31:12;;;;;;;7.30;1.50;;;;;;;21.81;45.14;101049.34;110103;1261;22738;-85
2022/07/08 15:33:50;;;;;;;4.90;1.90;;;;;;;21.69;45.07;101050.77;109973;1261;21970;-86
2022/07/08 15:36:56;;;;;;;3.30;1.60;;;;;;;21.59;45.31;101052.95;110212;1260;22836;-86
2022/07/08 15:39:59;;;;;;;6.90;1.80;;;;;;;21.53;45.64;101047.89;109795;1263;22356;-85
2022/07/08 15:42:57;;;;;;;3.60;1.50;;;;;;;21.50;45.75;101049.48;109285;1267;21992;-86
2022/07/08 15:45:32;;;;;;;6.70;1.30;;;;;;;21.49;45.94;101048.23;110221;1261;23643;-86
2022/07/08 15:48:37;;;;;;;6.00;1.50;;;;;;;21.45;46.17;101047.80;110180;1260;23595;-86
2022/07/08 15:51:29;;;;;;;4.00;1.50;;;;;;;21.44;46.51;101045.50;110136;1260;21992;-87
2022/07/08 15:54:28;;;;;;;8.40;1.70;;;;;;;21.44;46.70;101049.47;109527;1264;22184;-85
2022/07/08 15:57:04;;;;;;;5.70;1.10;;;;;;;21.42;46.84;101051.17;109487;1267;21948;-87
2022/07/08 15:59:39;;;;;;;4.40;1.20;;;;;;;21.41;46.87;101051.36;109332;1267;22797;-86
2022/07/08 16:02:17;;;;;;;5.50;1.40;;;;;;;21.40;47.00;101056.46;109094;1270;23770;-86
2022/07/08 16:04:52;;;;;;;11.10;1.90;;;;;;;21.41;46.94;101058.89;109151;1273;23212;-82
2022/07/08 16:07:25;;;;;;;10.90;2.00;;;;;;;21.39;46.95;101059.23;108961;1270;21988;-81
2022/07/08 16:09:58;;;;;;;5.00;1.80;;;;;;;21.38;47.10;101060.85;109173;1267;23681;-85
2022/07/08 16:12:36;;;;;;;7.00;1.60;;;;;;;21.37;47.16;101062.31;109736;1260;21970;-83
2022/07/08 16:15:10;;;;;;;;;;;;;;;21.32;47.17;101066.14;109149;1270;21963;-81
2022/07/08 16:17:58;;;;;;;4.20;1.20;;;;;;;21.20;47.62;101068.92;109311;1269;23093;-85
2022/07/08 16:21:22;;;;;;;7.80;1.60;;;;;;;21.17;47.82;101074.52;110093;1260;21975;-89
2022/07/08 16:24:09;;;;;;;4.00;1.50;;;;;;;21.12;47.92;101075.24;110216;1260;21980;-88
2022/07/08 16:26:42;;;;;;;8.20;2.30;;;;;;;21.14;48.24;101081.89;109817;1260;21988;-88
2022/07/08 16:29:13;;;;;;;4.50;1.80;;;;;;;21.17;48.43;101081.70;110210;1260;22534;-86
2022/07/08 16:32:06;;;;;;;5.10;1.50;;;;;;;21.18;48.52;101087.14;109855;1260;22167;-86
2022/07/08 16:35:01;;;;;;;7.00;1.80;;;;;;;21.17;48.51;101096.61;110924;1254;22109;-85
2022/07/08 16:37:45;;;;;;;15.80;3.10;;;;;;;21.16;48.50;101097.20;110643;1254;23618;-85
2022/07/08 16:40:36;;;;;;;6.90;1.90;;;;;;;21.06;48.71;101099.10;110805;1254;22259;-86
2022/07/08 16:43:08;;;;;;;7.20;2.30;;;;;;;20.98;48.92;101101.64;110184;1261;23592;-87
2022/07/08 16:45:50;;;;;;;6.80;2.10;;;;;;;20.86;48.82;101106.44;110073;1263;24283;-86
2022/07/08 16:49:08;;;;;;;5.40;1.70;;;;;;;20.71;49.19;101110.98;110116;1260;24374;-87
2022/07/08 16:51:58;;;;;;;5.90;1.70;;;;;;;20.54;49.48;101112.41;109682;1264;21986;-86
2022/07/08 16:54:29;;;;;;;5.50;1.70;;;;;;;20.43;49.90;101112.99;109656;1264;22054;-86
2022/07/08 16:57:07;;;;;;;8.60;2.00;;;;;;;20.39;50.44;101112.34;109539;1266;21974;-83
2022/07/08 16:59:46;;;;;;;8.30;1.80;;;;;;;20.34;50.61;101116.16;109441;1266;21978;-84
2022/07/08 17:02:17;;;;;;;7.20;2.20;;;;;;;20.24;50.89;101114.35;109810;1260;21982;-83
2022/07/08 17:05:00;;;;;;;6.10;1.90;;;;;;;20.14;51.32;101121.82;110510;1257;22004;-85
2022/07/08 17:07:59;;;;;;;7.50;2.00;;;;;;;20.04;51.79;101130.19;110779;1257;21965;-87
2022/07/08 17:11:02;;;;;;;8.10;2.40;;;;;;;19.96;52.32;101136.27;109762;1266;23039;-85
2022/07/08 17:13:36;;;;;;;5.10;1.60;;;;;;;19.88;52.75;101135.39;109566;1266;21981;-83
2022/07/08 17:16:17;;;;;;;5.50;1.60;;;;;;;19.81;53.17;101135.57;109139;1270;22115;-84
2022/07/08 17:18:47;;;;;;;5.50;2.10;;;;;;;19.75;53.55;101141.48;109254;1270;22051;-85
2022/07/08 17:21:30;;;;;;;8.30;2.20;;;;;;;19.70;53.81;101147.15;109134;1270;21993;-84
2022/07/08 17:24:07;;;;;;;11.40;3.40;;;;;;;19.68;54.14;101147.10;109340;1267;21980;-84
2022/07/08 17:26:51;;;;;;;6.10;2.70;;;;;;;19.68;54.44;101153.04;109003;1273;23025;-83
2022/07/08 17:29:56;;;;;;;6.90;3.10;;;;;;;19.68;54.41;101155.80;109018;1273;23630;-82
2022/07/08 17:32:53;;;;;;;8.30;2.90;;;;;;;19.61;54.76;101157.98;108646;1282;23031;-84
2022/07/08 17:35:23;;;;;;;7.40;2.80;;;;;;;19.60;55.14;101160.48;108373;1280;23062;-84
2022/07/08 17:37:55;;;;;;;17.00;2.60;;;;;;;19.63;55.28;101158.01;108446;1279;22065;-83
2022/07/08 17:40:34;;;;;;;8.70;2.90;;;;;;;19.64;55.35;101159.59;108398;1280;22699;-82
2022/07/08 17:43:15;;;;;;;6.20;2.20;;;;;;;19.64;55.62;101165.98;108060;1284;22555;-83
2022/07/08 17:45:58;;;;;;;6.30;2.60;;;;;;;19.61;55.69;101166.05;107850;1286;22030;-83
2022/07/08 17:48:27;;;;;;;10.50;2.40;;;;;;;19.56;55.76;101170.17;107914;1285;22871;-84
2022/07/08 17:50:57;;;;;;;5.40;2.20;;;;;;;19.51;56.02;101168.19;108234;1283;22002;-86
2022/07/08 17:53:29;;;;;;;;;;;;;;;19.46;56.49;101167.16;108339;1284;23735;-82
2022/07/08 17:56:00;;;;;;;9.50;2.20;;;;;;;19.35;57.02;101167.78;108238;1283;22046;-85
2022/07/08 17:58:34;;;;;;;8.50;2.50;;;;;;;19.30;57.23;101169.51;108419;1279;23912;-85
2022/07/08 18:01:15;;;;;;;6.40;2.20;;;;;;;19.29;57.80;101171.41;108918;1276;22033;-85
2022/07/08 18:03:58;;;;;;;5.10;3.00;;;;;;;19.25;57.92;101169.66;109084;1271;22140;-86
2022/07/08 18:06:37;;;;;;;11.00;3.10;;;;;;;19.18;58.40;101165.91;109050;1270;22681;-85
2022/07/08 18:09:16;;;;;;;5.80;2.30;;;;;;;19.17;59.24;101162.99;108914;1267;21989;-85
2022/07/08 18:11:45;;;;;;;9.60;2.90;;;;;;;19.15;59.68;101164.02;109151;1267;22098;-84
2022/07/08 18:14:17;;;;;;;6.40;2.50;;;;;;;19.12;59.74;101163.77;109271;1267;22341;-83
2022/07/08 18:17:14;;;;;;;7.50;2.60;;;;;;;19.10;60.28;101170.27;109020;1266;23165;-84
2022/07/08 18:20:04;;;;;;;4.80;2.30;;;;;;;18.99;60.42;101170.13;108888;1273;22010;-84
2022/07/08 18:22:42;;;;;;;10.00;2.80;;;;;;;18.91;60.63;101170.81;109111;1271;22003;-85
2022/07/08 18:29:11;;;;;;;;;;;;;;;;;;;;;
2022/07/08 18:32:42;;;;;;;;;;;;;;;;;;;;;
2022/07/08 18:36:11;;;;;;;7.70;3.50;;;;;;;18.67;61.80;101158.63;109012;1273;21989;-85
2022/07/08 18:39:17;;;;;;;8.60;2.90;;;;;;;18.62;62.15;101160.48;109044;1274;21995;-85
2022/07/08 18:42:51;;;;;;;10.30;3.40;;;;;;;18.55;62.15;101159.40;108880;1273;22106;-84
2022/07/08 18:46:24;;;;;;;9.20;2.90;;;;;;;18.44;62.27;101160.39;108905;1273;22006;-83
2022/07/08 18:49:11;;;;;;;4.50;2.60;;;;;;;18.41;62.37;101159.67;108860;1273;22052;-85
2022/07/08 18:52:32;;;;;;;;;;;;;;;;;;;;;
2022/07/08 18:55:41;;;;;;;9.10;2.80;;;;;;;18.34;62.57;101170.34;108816;1279;22079;-82
2022/07/08 18:59:28;;;;;;;;;;;;;;;;;;;;;
2022/07/08 19:03:26;;;;;;;10.50;2.70;;;;;;;18.33;62.72;101175.23;108753;1277;22067;-85
2022/07/08 19:07:11;;;;;;;5.20;2.60;;;;;;;18.34;62.69;101174.09;108679;1279;22090;-87
2022/07/08 19:10:43;;;;;;;6.00;3.00;;;;;;;18.37;62.77;101176.58;108410;1282;22742;-85
2022/07/08 19:14:23;;;;;;;6.60;2.40;;;;;;;18.38;62.50;101178.96;109010;1273;21954;-86
2022/07/08 19:18:00;;;;;;;8.40;2.80;;;;;;;18.39;62.37;101179.41;108622;1282;22772;-85
2022/07/08 19:21:09;;;;;;;;;;;;;;;;;;;;;
2022/07/08 19:25:24;;;;;;;;;;;;;;;;;;;;;
2022/07/08 19:30:12;;;;;;;;;;;;;;;;;;;;;
2022/07/08 19:34:01;;;;;;;;;;;;;;;;;;;;;
2022/07/08 19:37:22;;;;;;;;;;;;;;;;;;;;;
2022/07/08 19:41:17;;;;;;;10.80;5.20;;;;;;;18.31;62.74;101190.83;109191;1279;22208;-87
2022/07/08 19:44:51;;;;;;;12.50;5.20;;;;;;;18.27;63.36;101194.30;108683;1285;22017;-85
2022/07/08 19:48:44;;;;;;;13.60;4.60;;;;;;;18.22;63.58;101193.62;108298;1286;22181;-89
2022/07/08 19:52:27;;;;;;;;;;;;;;;;;;;;;
2022/07/08 19:59:17;;;;;;;11.50;4.40;;;;;;;18.21;64.06;101203.41;111096;1253;21954;-86
2022/07/08 20:03:02;;;;;;;;;;;;;;;;;;;;;
2022/07/08 20:06:37;;;;;;;6.00;3.70;;;;;;;18.16;64.05;101203.25;109331;1267;21997;-86
2022/07/08 20:10:07;;;;;;;12.90;3.90;;;;;;;18.15;63.93;101201.64;109139;1273;23805;-87
2022/07/08 20:13:32;;;;;;;16.50;4.70;;;;;;;18.15;63.72;101199.09;108838;1273;23653;-82
2022/07/08 20:16:58;;;;;;;;;;;;;;;;;;;;;
2022/07/08 20:20:49;;;;;;;;;;;;;;;;;;;;;
2022/07/08 20:24:31;;;;;;;11.20;4.00;;;;;;;18.09;63.25;101206.02;109216;1267;23610;-84
2022/07/08 20:27:54;;;;;;;9.50;3.50;;;;;;;18.07;63.12;101208.48;109549;1266;21979;-85